sensor_id;sensor_type;location;lat;lon;timestamp;P1;durP1;ratioP1;P2;durP2;ratioP2
1751;SDS011;873;47.696;8.068;2023-05-07T00:00:32;0.67;;;0.63;;
1751;SDS011;873;47.696;8.068;2023-05-07T00:02:59;0.60;;;0.60;;
1751;SDS011;873;47.696;8.068;2023-05-07T00:05:24;0.70;;;0.60;;
1751;SDS011;873;47.696;8.068;2023-05-07T00:07:50;0.73;;;0.70;;
1751;SDS011;873;47.696;8.068;2023-05-07T00:10:17;1.43;;;0.80;;
1751;SDS011;873;47.696;8.068;2023-05-07T00:12:43;0.70;;;0.70;;
1751;SDS011;873;47.696;8.068;2023-05-07T00:15:09;0.90;;;0.70;;
1751;SDS011;873;47.696;8.068;2023-05-07T00:17:35;1.03;;;0.90;;
1751;SDS011;873;47.696;8.068;2023-05-07T00:20:01;0.63;;;0.63;;
1751;SDS011;873;47.696;8.068;2023-05-07T00:22:28;1.00;;;0.90;;
1751;SDS011;873;47.696;8.068;2023-05-07T00:24:55;1.20;;;0.47;;
1751;SDS011;873;47.696;8.068;2023-05-07T00:27:20;0.70;;;0.70;;
1751;SDS011;873;47.696;8.068;2023-05-07T00:29:46;1.60;;;1.00;;
1751;SDS011;873;47.696;8.068;2023-05-07T00:32:12;0.80;;;0.60;;
1751;SDS011;873;47.696;8.068;2023-05-07T00:34:37;1.50;;;0.93;;
1751;SDS011;873;47.696;8.068;2023-05-07T00:37:04;1.83;;;0.70;;
1751;SDS011;873;47.696;8.068;2023-05-07T00:39:32;0.73;;;0.73;;
1751;SDS011;873;47.696;8.068;2023-05-07T00:41:58;2.90;;;0.70;;
1751;SDS011;873;47.696;8.068;2023-05-07T00:44:24;1.47;;;1.00;;
1751;SDS011;873;47.696;8.068;2023-05-07T00:46:50;0.80;;;0.70;;
1751;SDS011;873;47.696;8.068;2023-05-07T00:49:15;1.50;;;0.73;;
1751;SDS011;873;47.696;8.068;2023-05-07T00:51:41;0.87;;;0.70;;
1751;SDS011;873;47.696;8.068;2023-05-07T00:54:07;0.70;;;0.70;;
1751;SDS011;873;47.696;8.068;2023-05-07T00:56:33;1.10;;;1.03;;
1751;SDS011;873;47.696;8.068;2023-05-07T00:58:58;2.50;;;1.00;;
1751;SDS011;873;47.696;8.068;2023-05-07T01:01:24;0.63;;;0.63;;
1751;SDS011;873;47.696;8.068;2023-05-07T01:03:50;0.83;;;0.80;;
1751;SDS011;873;47.696;8.068;2023-05-07T01:06:15;1.07;;;0.97;;
1751;SDS011;873;47.696;8.068;2023-05-07T01:08:42;1.13;;;1.03;;
1751;SDS011;873;47.696;8.068;2023-05-07T01:11:07;1.37;;;1.27;;
1751;SDS011;873;47.696;8.068;2023-05-07T01:13:34;1.87;;;1.10;;
1751;SDS011;873;47.696;8.068;2023-05-07T01:16:00;1.00;;;0.90;;
1751;SDS011;873;47.696;8.068;2023-05-07T01:18:26;2.53;;;1.00;;
1751;SDS011;873;47.696;8.068;2023-05-07T01:20:52;1.00;;;0.90;;
1751;SDS011;873;47.696;8.068;2023-05-07T01:23:17;1.23;;;0.97;;
1751;SDS011;873;47.696;8.068;2023-05-07T01:25:50;3.70;;;1.00;;
1751;SDS011;873;47.696;8.068;2023-05-07T01:28:16;1.10;;;1.00;;
1751;SDS011;873;47.696;8.068;2023-05-07T01:30:41;1.10;;;1.00;;
1751;SDS011;873;47.696;8.068;2023-05-07T01:33:11;0.87;;;0.87;;
1751;SDS011;873;47.696;8.068;2023-05-07T01:35:40;0.80;;;0.80;;
1751;SDS011;873;47.696;8.068;2023-05-07T01:38:07;1.37;;;1.20;;
1751;SDS011;873;47.696;8.068;2023-05-07T01:40:33;0.90;;;0.90;;
1751;SDS011;873;47.696;8.068;2023-05-07T01:43:00;1.00;;;0.77;;
1751;SDS011;873;47.696;8.068;2023-05-07T01:45:27;1.53;;;1.10;;
1751;SDS011;873;47.696;8.068;2023-05-07T01:47:52;1.77;;;1.03;;
1751;SDS011;873;47.696;8.068;2023-05-07T01:50:18;1.67;;;1.23;;
1751;SDS011;873;47.696;8.068;2023-05-07T01:52:44;1.47;;;1.00;;
1751;SDS011;873;47.696;8.068;2023-05-07T01:55:10;0.97;;;0.97;;
1751;SDS011;873;47.696;8.068;2023-05-07T01:57:36;1.63;;;1.20;;
1751;SDS011;873;47.696;8.068;2023-05-07T02:00:02;1.07;;;0.97;;
1751;SDS011;873;47.696;8.068;2023-05-07T02:02:30;1.10;;;1.00;;
1751;SDS011;873;47.696;8.068;2023-05-07T02:04:55;2.17;;;1.37;;
1751;SDS011;873;47.696;8.068;2023-05-07T02:07:21;1.40;;;1.30;;
1751;SDS011;873;47.696;8.068;2023-05-07T02:09:46;1.10;;;1.00;;
1751;SDS011;873;47.696;8.068;2023-05-07T02:12:12;1.33;;;1.07;;
1751;SDS011;873;47.696;8.068;2023-05-07T02:14:37;1.73;;;1.30;;
1751;SDS011;873;47.696;8.068;2023-05-07T02:17:03;0.80;;;0.80;;
1751;SDS011;873;47.696;8.068;2023-05-07T02:19:28;2.47;;;1.23;;
1751;SDS011;873;47.696;8.068;2023-05-07T02:21:54;1.73;;;1.27;;
1751;SDS011;873;47.696;8.068;2023-05-07T02:24:20;1.20;;;1.10;;
1751;SDS011;873;47.696;8.068;2023-05-07T02:26:46;4.60;;;1.20;;
1751;SDS011;873;47.696;8.068;2023-05-07T02:29:11;1.33;;;1.13;;
1751;SDS011;873;47.696;8.068;2023-05-07T02:31:37;1.30;;;1.20;;
1751;SDS011;873;47.696;8.068;2023-05-07T02:34:02;1.53;;;1.43;;
1751;SDS011;873;47.696;8.068;2023-05-07T02:36:28;1.47;;;1.37;;
1751;SDS011;873;47.696;8.068;2023-05-07T02:38:54;1.40;;;1.30;;
1751;SDS011;873;47.696;8.068;2023-05-07T02:41:19;1.30;;;1.20;;
1751;SDS011;873;47.696;8.068;2023-05-07T02:43:45;1.50;;;1.27;;
1751;SDS011;873;47.696;8.068;2023-05-07T02:46:11;3.17;;;1.50;;
1751;SDS011;873;47.696;8.068;2023-05-07T02:48:36;1.47;;;1.20;;
1751;SDS011;873;47.696;8.068;2023-05-07T02:51:02;1.20;;;1.10;;
1751;SDS011;873;47.696;8.068;2023-05-07T02:53:28;1.63;;;1.23;;
1751;SDS011;873;47.696;8.068;2023-05-07T02:55:56;1.83;;;1.07;;
1751;SDS011;873;47.696;8.068;2023-05-07T02:58:22;1.53;;;1.30;;
1751;SDS011;873;47.696;8.068;2023-05-07T03:00:47;1.60;;;1.30;;
1751;SDS011;873;47.696;8.068;2023-05-07T03:03:13;1.20;;;1.10;;
1751;SDS011;873;47.696;8.068;2023-05-07T03:05:39;1.90;;;1.50;;
1751;SDS011;873;47.696;8.068;2023-05-07T03:08:05;2.23;;;1.40;;
1751;SDS011;873;47.696;8.068;2023-05-07T03:10:30;1.53;;;1.30;;
1751;SDS011;873;47.696;8.068;2023-05-07T03:12:56;2.37;;;1.50;;
1751;SDS011;873;47.696;8.068;2023-05-07T03:15:21;1.47;;;1.20;;
1751;SDS011;873;47.696;8.068;2023-05-07T03:17:47;1.63;;;1.17;;
1751;SDS011;873;47.696;8.068;2023-05-07T03:20:13;0.90;;;0.80;;
1751;SDS011;873;47.696;8.068;2023-05-07T03:22:38;1.60;;;1.30;;
1751;SDS011;873;47.696;8.068;2023-05-07T03:25:04;1.13;;;1.10;;
1751;SDS011;873;47.696;8.068;2023-05-07T03:27:30;1.20;;;1.10;;
1751;SDS011;873;47.696;8.068;2023-05-07T03:29:55;1.23;;;1.07;;
1751;SDS011;873;47.696;8.068;2023-05-07T03:32:21;1.20;;;0.93;;
1751;SDS011;873;47.696;8.068;2023-05-07T03:34:46;0.97;;;0.90;;
1751;SDS011;873;47.696;8.068;2023-05-07T03:37:12;1.20;;;1.10;;
1751;SDS011;873;47.696;8.068;2023-05-07T03:39:37;3.47;;;1.20;;
1751;SDS011;873;47.696;8.068;2023-05-07T03:42:03;0.80;;;0.80;;
1751;SDS011;873;47.696;8.068;2023-05-07T03:44:28;0.90;;;0.83;;
1751;SDS011;873;47.696;8.068;2023-05-07T03:46:54;1.53;;;1.03;;
1751;SDS011;873;47.696;8.068;2023-05-07T03:49:20;1.43;;;1.00;;
1751;SDS011;873;47.696;8.068;2023-05-07T03:51:46;0.70;;;0.70;;
1751;SDS011;873;47.696;8.068;2023-05-07T03:54:11;1.63;;;0.83;;
1751;SDS011;873;47.696;8.068;2023-05-07T03:56:40;1.37;;;1.10;;
1751;SDS011;873;47.696;8.068;2023-05-07T03:59:05;0.97;;;0.90;;
1751;SDS011;873;47.696;8.068;2023-05-07T04:01:31;0.77;;;0.60;;
1751;SDS011;873;47.696;8.068;2023-05-07T04:03:56;1.00;;;0.87;;
1751;SDS011;873;47.696;8.068;2023-05-07T04:06:22;0.67;;;0.67;;
1751;SDS011;873;47.696;8.068;2023-05-07T04:08:47;0.73;;;0.73;;
1751;SDS011;873;47.696;8.068;2023-05-07T04:11:13;1.40;;;1.07;;
1751;SDS011;873;47.696;8.068;2023-05-07T04:13:38;1.10;;;1.00;;
1751;SDS011;873;47.696;8.068;2023-05-07T04:16:04;1.47;;;0.70;;
1751;SDS011;873;47.696;8.068;2023-05-07T04:18:30;2.07;;;0.97;;
1751;SDS011;873;47.696;8.068;2023-05-07T04:20:55;1.07;;;0.80;;
1751;SDS011;873;47.696;8.068;2023-05-07T04:23:21;0.77;;;0.70;;
1751;SDS011;873;47.696;8.068;2023-05-07T04:25:46;1.27;;;0.70;;
1751;SDS011;873;47.696;8.068;2023-05-07T04:28:12;0.77;;;0.60;;
1751;SDS011;873;47.696;8.068;2023-05-07T04:30:38;1.00;;;0.90;;
1751;SDS011;873;47.696;8.068;2023-05-07T04:33:04;2.83;;;0.90;;
1751;SDS011;873;47.696;8.068;2023-05-07T04:35:29;1.40;;;0.97;;
1751;SDS011;873;47.696;8.068;2023-05-07T04:37:55;0.60;;;0.60;;
1751;SDS011;873;47.696;8.068;2023-05-07T04:40:20;3.03;;;1.43;;
1751;SDS011;873;47.696;8.068;2023-05-07T04:42:46;2.07;;;1.20;;
1751;SDS011;873;47.696;8.068;2023-05-07T04:45:11;3.73;;;1.23;;
1751;SDS011;873;47.696;8.068;2023-05-07T04:47:37;1.67;;;1.40;;
1751;SDS011;873;47.696;8.068;2023-05-07T04:50:03;1.00;;;0.70;;
1751;SDS011;873;47.696;8.068;2023-05-07T04:52:30;0.70;;;0.60;;
1751;SDS011;873;47.696;8.068;2023-05-07T04:54:56;0.50;;;0.50;;
1751;SDS011;873;47.696;8.068;2023-05-07T04:57:24;0.90;;;0.80;;
1751;SDS011;873;47.696;8.068;2023-05-07T04:59:49;0.70;;;0.70;;
1751;SDS011;873;47.696;8.068;2023-05-07T05:02:15;0.60;;;0.60;;
1751;SDS011;873;47.696;8.068;2023-05-07T05:04:40;0.67;;;0.67;;
1751;SDS011;873;47.696;8.068;2023-05-07T05:07:06;0.80;;;0.80;;
1751;SDS011;873;47.696;8.068;2023-05-07T05:09:32;1.30;;;0.80;;
1751;SDS011;873;47.696;8.068;2023-05-07T05:11:57;1.57;;;0.70;;
1751;SDS011;873;47.696;8.068;2023-05-07T05:14:24;0.47;;;0.47;;
1751;SDS011;873;47.696;8.068;2023-05-07T05:16:49;0.73;;;0.60;;
1751;SDS011;873;47.696;8.068;2023-05-07T05:19:15;0.80;;;0.70;;
1751;SDS011;873;47.696;8.068;2023-05-07T05:21:41;0.50;;;0.50;;
1751;SDS011;873;47.696;8.068;2023-05-07T05:24:07;0.70;;;0.70;;
1751;SDS011;873;47.696;8.068;2023-05-07T05:26:32;0.60;;;0.43;;
1751;SDS011;873;47.696;8.068;2023-05-07T05:28:59;0.60;;;0.60;;
1751;SDS011;873;47.696;8.068;2023-05-07T05:31:24;0.80;;;0.60;;
1751;SDS011;873;47.696;8.068;2023-05-07T05:33:50;1.40;;;0.60;;
1751;SDS011;873;47.696;8.068;2023-05-07T05:36:16;1.67;;;0.80;;
1751;SDS011;873;47.696;8.068;2023-05-07T05:38:41;1.03;;;0.77;;
1751;SDS011;873;47.696;8.068;2023-05-07T05:41:07;0.70;;;0.70;;
1751;SDS011;873;47.696;8.068;2023-05-07T05:43:33;1.70;;;0.93;;
1751;SDS011;873;47.696;8.068;2023-05-07T05:45:58;1.07;;;0.97;;
1751;SDS011;873;47.696;8.068;2023-05-07T05:48:24;0.93;;;0.83;;
1751;SDS011;873;47.696;8.068;2023-05-07T05:50:49;1.10;;;0.90;;
1751;SDS011;873;47.696;8.068;2023-05-07T05:53:15;0.80;;;0.73;;
1751;SDS011;873;47.696;8.068;2023-05-07T05:55:41;1.60;;;1.00;;
1751;SDS011;873;47.696;8.068;2023-05-07T05:58:07;1.27;;;0.90;;
1751;SDS011;873;47.696;8.068;2023-05-07T06:00:32;1.93;;;1.27;;
1751;SDS011;873;47.696;8.068;2023-05-07T06:02:58;1.37;;;0.90;;
1751;SDS011;873;47.696;8.068;2023-05-07T06:05:23;1.20;;;0.90;;
1751;SDS011;873;47.696;8.068;2023-05-07T06:07:49;0.80;;;0.60;;
1751;SDS011;873;47.696;8.068;2023-05-07T06:10:14;2.50;;;0.80;;
1751;SDS011;873;47.696;8.068;2023-05-07T06:12:40;2.30;;;0.53;;
1751;SDS011;873;47.696;8.068;2023-05-07T06:15:06;1.00;;;0.90;;
1751;SDS011;873;47.696;8.068;2023-05-07T06:17:31;0.70;;;0.53;;
1751;SDS011;873;47.696;8.068;2023-05-07T06:19:57;0.60;;;0.60;;
1751;SDS011;873;47.696;8.068;2023-05-07T06:22:22;0.80;;;0.77;;
1751;SDS011;873;47.696;8.068;2023-05-07T06:24:48;0.57;;;0.40;;
1751;SDS011;873;47.696;8.068;2023-05-07T06:27:13;0.63;;;0.40;;
1751;SDS011;873;47.696;8.068;2023-05-07T06:29:39;0.73;;;0.57;;
1751;SDS011;873;47.696;8.068;2023-05-07T06:32:06;0.80;;;0.50;;
1751;SDS011;873;47.696;8.068;2023-05-07T06:34:44;0.60;;;0.57;;
1751;SDS011;873;47.696;8.068;2023-05-07T06:37:09;0.63;;;0.63;;
1751;SDS011;873;47.696;8.068;2023-05-07T06:39:35;0.83;;;0.70;;
1751;SDS011;873;47.696;8.068;2023-05-07T06:42:01;1.23;;;0.70;;
1751;SDS011;873;47.696;8.068;2023-05-07T06:44:29;0.67;;;0.67;;
1751;SDS011;873;47.696;8.068;2023-05-07T06:46:54;0.70;;;0.70;;
1751;SDS011;873;47.696;8.068;2023-05-07T06:49:19;0.97;;;0.70;;
1751;SDS011;873;47.696;8.068;2023-05-07T06:51:45;0.60;;;0.60;;
1751;SDS011;873;47.696;8.068;2023-05-07T06:54:10;0.63;;;0.60;;
1751;SDS011;873;47.696;8.068;2023-05-07T06:56:36;0.80;;;0.70;;
1751;SDS011;873;47.696;8.068;2023-05-07T06:59:02;0.93;;;0.77;;
1751;SDS011;873;47.696;8.068;2023-05-07T07:01:28;1.00;;;0.90;;
1751;SDS011;873;47.696;8.068;2023-05-07T07:03:54;1.07;;;0.90;;
1751;SDS011;873;47.696;8.068;2023-05-07T07:06:19;0.90;;;0.80;;
1751;SDS011;873;47.696;8.068;2023-05-07T07:08:46;1.17;;;0.80;;
1751;SDS011;873;47.696;8.068;2023-05-07T07:11:11;1.70;;;1.30;;
1751;SDS011;873;47.696;8.068;2023-05-07T07:13:37;1.03;;;0.90;;
1751;SDS011;873;47.696;8.068;2023-05-07T07:16:02;1.00;;;0.90;;
1751;SDS011;873;47.696;8.068;2023-05-07T07:18:28;1.40;;;1.03;;
1751;SDS011;873;47.696;8.068;2023-05-07T07:20:54;2.07;;;0.97;;
1751;SDS011;873;47.696;8.068;2023-05-07T07:23:19;1.37;;;1.27;;
1751;SDS011;873;47.696;8.068;2023-05-07T07:25:45;1.23;;;1.10;;
1751;SDS011;873;47.696;8.068;2023-05-07T07:28:10;1.00;;;0.90;;
1751;SDS011;873;47.696;8.068;2023-05-07T07:30:36;2.30;;;0.97;;
1751;SDS011;873;47.696;8.068;2023-05-07T07:33:02;1.30;;;1.20;;
1751;SDS011;873;47.696;8.068;2023-05-07T07:35:29;1.43;;;0.90;;
1751;SDS011;873;47.696;8.068;2023-05-07T07:37:55;1.20;;;1.10;;
1751;SDS011;873;47.696;8.068;2023-05-07T07:40:20;1.83;;;1.17;;
1751;SDS011;873;47.696;8.068;2023-05-07T07:42:46;1.40;;;1.00;;
1751;SDS011;873;47.696;8.068;2023-05-07T07:45:11;1.10;;;0.90;;
1751;SDS011;873;47.696;8.068;2023-05-07T07:47:38;1.20;;;0.77;;
1751;SDS011;873;47.696;8.068;2023-05-07T07:50:04;1.23;;;1.10;;
1751;SDS011;873;47.696;8.068;2023-05-07T07:52:30;1.70;;;1.03;;
1751;SDS011;873;47.696;8.068;2023-05-07T07:54:56;1.03;;;0.80;;
1751;SDS011;873;47.696;8.068;2023-05-07T07:57:21;1.17;;;1.07;;
1751;SDS011;873;47.696;8.068;2023-05-07T07:59:47;1.00;;;0.90;;
1751;SDS011;873;47.696;8.068;2023-05-07T08:02:12;0.80;;;0.80;;
1751;SDS011;873;47.696;8.068;2023-05-07T08:04:55;1.20;;;0.93;;
1751;SDS011;873;47.696;8.068;2023-05-07T08:07:21;1.00;;;1.00;;
1751;SDS011;873;47.696;8.068;2023-05-07T08:09:47;1.20;;;1.10;;
1751;SDS011;873;47.696;8.068;2023-05-07T08:12:13;0.97;;;0.80;;
1751;SDS011;873;47.696;8.068;2023-05-07T08:14:39;1.23;;;1.13;;
1751;SDS011;873;47.696;8.068;2023-05-07T08:17:04;1.00;;;0.87;;
1751;SDS011;873;47.696;8.068;2023-05-07T08:19:30;0.67;;;0.67;;
1751;SDS011;873;47.696;8.068;2023-05-07T08:21:55;1.43;;;0.90;;
1751;SDS011;873;47.696;8.068;2023-05-07T08:24:21;0.90;;;0.80;;
1751;SDS011;873;47.696;8.068;2023-05-07T08:26:46;0.50;;;0.50;;
1751;SDS011;873;47.696;8.068;2023-05-07T08:29:12;1.03;;;0.93;;
1751;SDS011;873;47.696;8.068;2023-05-07T08:31:37;1.03;;;1.00;;
1751;SDS011;873;47.696;8.068;2023-05-07T08:34:04;1.03;;;0.80;;
1751;SDS011;873;47.696;8.068;2023-05-07T08:36:30;0.70;;;0.67;;
1751;SDS011;873;47.696;8.068;2023-05-07T08:38:55;0.90;;;0.80;;
1751;SDS011;873;47.696;8.068;2023-05-07T08:41:21;0.67;;;0.67;;
1751;SDS011;873;47.696;8.068;2023-05-07T08:43:48;1.27;;;0.90;;
1751;SDS011;873;47.696;8.068;2023-05-07T08:46:19;1.13;;;1.00;;
1751;SDS011;873;47.696;8.068;2023-05-07T08:48:48;1.10;;;1.00;;
1751;SDS011;873;47.696;8.068;2023-05-07T08:51:16;1.07;;;0.80;;
1751;SDS011;873;47.696;8.068;2023-05-07T08:53:43;1.17;;;1.00;;
1751;SDS011;873;47.696;8.068;2023-05-07T08:56:09;0.97;;;0.77;;
1751;SDS011;873;47.696;8.068;2023-05-07T08:58:35;0.80;;;0.80;;
1751;SDS011;873;47.696;8.068;2023-05-07T09:01:02;1.17;;;1.00;;
1751;SDS011;873;47.696;8.068;2023-05-07T09:03:30;0.90;;;0.80;;
1751;SDS011;873;47.696;8.068;2023-05-07T09:05:56;1.07;;;0.97;;
1751;SDS011;873;47.696;8.068;2023-05-07T09:08:24;2.07;;;1.10;;
1751;SDS011;873;47.696;8.068;2023-05-07T09:10:51;0.80;;;0.80;;
1751;SDS011;873;47.696;8.068;2023-05-07T09:13:17;1.20;;;1.10;;
1751;SDS011;873;47.696;8.068;2023-05-07T09:15:43;0.80;;;0.80;;
1751;SDS011;873;47.696;8.068;2023-05-07T09:18:09;1.43;;;1.00;;
1751;SDS011;873;47.696;8.068;2023-05-07T09:20:36;1.47;;;1.00;;
1751;SDS011;873;47.696;8.068;2023-05-07T09:23:02;1.23;;;0.83;;
1751;SDS011;873;47.696;8.068;2023-05-07T09:25:28;0.80;;;0.80;;
1751;SDS011;873;47.696;8.068;2023-05-07T09:27:54;1.70;;;1.00;;
1751;SDS011;873;47.696;8.068;2023-05-07T09:30:20;3.00;;;0.90;;
1751;SDS011;873;47.696;8.068;2023-05-07T09:32:46;0.93;;;0.87;;
1751;SDS011;873;47.696;8.068;2023-05-07T09:35:15;1.20;;;0.87;;
1751;SDS011;873;47.696;8.068;2023-05-07T09:37:41;0.83;;;0.83;;
1751;SDS011;873;47.696;8.068;2023-05-07T09:40:07;2.00;;;0.90;;
1751;SDS011;873;47.696;8.068;2023-05-07T09:42:34;1.20;;;0.93;;
1751;SDS011;873;47.696;8.068;2023-05-07T09:44:59;1.93;;;1.00;;
1751;SDS011;873;47.696;8.068;2023-05-07T09:47:26;1.50;;;1.03;;
1751;SDS011;873;47.696;8.068;2023-05-07T09:49:56;0.97;;;0.90;;
1751;SDS011;873;47.696;8.068;2023-05-07T09:52:23;1.00;;;0.90;;
1751;SDS011;873;47.696;8.068;2023-05-07T09:54:50;0.80;;;0.80;;
1751;SDS011;873;47.696;8.068;2023-05-07T09:57:15;0.67;;;0.67;;
1751;SDS011;873;47.696;8.068;2023-05-07T09:59:42;0.97;;;0.57;;
1751;SDS011;873;47.696;8.068;2023-05-07T10:02:09;0.80;;;0.80;;
1751;SDS011;873;47.696;8.068;2023-05-07T10:04:35;1.60;;;0.87;;
1751;SDS011;873;47.696;8.068;2023-05-07T10:07:01;1.10;;;0.90;;
1751;SDS011;873;47.696;8.068;2023-05-07T10:09:28;0.90;;;0.90;;
1751;SDS011;873;47.696;8.068;2023-05-07T10:11:54;0.70;;;0.70;;
1751;SDS011;873;47.696;8.068;2023-05-07T10:14:20;1.43;;;0.57;;
1751;SDS011;873;47.696;8.068;2023-05-07T10:16:46;1.10;;;0.93;;
1751;SDS011;873;47.696;8.068;2023-05-07T10:19:12;0.70;;;0.70;;
1751;SDS011;873;47.696;8.068;2023-05-07T10:21:42;0.80;;;0.70;;
1751;SDS011;873;47.696;8.068;2023-05-07T10:24:15;1.57;;;0.80;;
1751;SDS011;873;47.696;8.068;2023-05-07T10:26:45;0.87;;;0.67;;
1751;SDS011;873;47.696;8.068;2023-05-07T10:29:16;1.20;;;1.10;;
1751;SDS011;873;47.696;8.068;2023-05-07T10:31:57;0.60;;;0.60;;
1751;SDS011;873;47.696;8.068;2023-05-07T10:34:36;0.87;;;0.80;;
1751;SDS011;873;47.696;8.068;2023-05-07T10:37:03;1.00;;;0.87;;
1751;SDS011;873;47.696;8.068;2023-05-07T10:39:29;1.27;;;1.17;;
1751;SDS011;873;47.696;8.068;2023-05-07T10:41:55;1.73;;;0.70;;
1751;SDS011;873;47.696;8.068;2023-05-07T10:44:28;2.37;;;1.00;;
1751;SDS011;873;47.696;8.068;2023-05-07T10:47:11;0.67;;;0.67;;
1751;SDS011;873;47.696;8.068;2023-05-07T10:52:22;1.90;;;0.90;;
1751;SDS011;873;47.696;8.068;2023-05-07T10:57:50;1.20;;;1.10;;
1751;SDS011;873;47.696;8.068;2023-05-07T11:00:40;2.37;;;1.00;;
1751;SDS011;873;47.696;8.068;2023-05-07T11:03:25;0.83;;;0.83;;
1751;SDS011;873;47.696;8.068;2023-05-07T11:08:54;0.63;;;0.63;;
1751;SDS011;873;47.696;8.068;2023-05-07T11:17:10;0.80;;;0.80;;
1751;SDS011;873;47.696;8.068;2023-05-07T11:19:53;0.85;;;0.85;;
1751;SDS011;873;47.696;8.068;2023-05-07T11:22:36;0.83;;;0.77;;
1751;SDS011;873;47.696;8.068;2023-05-07T11:25:05;0.80;;;0.80;;
1751;SDS011;873;47.696;8.068;2023-05-07T11:27:31;0.80;;;0.80;;
1751;SDS011;873;47.696;8.068;2023-05-07T11:29:57;1.00;;;0.90;;
1751;SDS011;873;47.696;8.068;2023-05-07T11:32:24;1.27;;;1.07;;
1751;SDS011;873;47.696;8.068;2023-05-07T11:34:53;1.40;;;1.05;;
1751;SDS011;873;47.696;8.068;2023-05-07T11:37:20;0.90;;;0.90;;
1751;SDS011;873;47.696;8.068;2023-05-07T11:39:46;1.23;;;1.07;;
1751;SDS011;873;47.696;8.068;2023-05-07T11:42:28;1.23;;;1.00;;
1751;SDS011;873;47.696;8.068;2023-05-07T11:44:54;0.93;;;0.93;;
1751;SDS011;873;47.696;8.068;2023-05-07T11:47:20;1.00;;;0.90;;
1751;SDS011;873;47.696;8.068;2023-05-07T11:49:50;2.90;;;0.90;;
1751;SDS011;873;47.696;8.068;2023-05-07T11:52:18;1.57;;;1.17;;
1751;SDS011;873;47.696;8.068;2023-05-07T11:54:52;1.20;;;1.10;;
1751;SDS011;873;47.696;8.068;2023-05-07T11:57:20;1.23;;;1.13;;
1751;SDS011;873;47.696;8.068;2023-05-07T11:59:47;1.20;;;1.10;;
1751;SDS011;873;47.696;8.068;2023-05-07T12:02:13;1.57;;;1.47;;
1751;SDS011;873;47.696;8.068;2023-05-07T12:04:40;1.40;;;1.10;;
1751;SDS011;873;47.696;8.068;2023-05-07T12:07:14;1.27;;;1.13;;
1751;SDS011;873;47.696;8.068;2023-05-07T12:09:41;1.60;;;1.30;;
1751;SDS011;873;47.696;8.068;2023-05-07T12:12:06;1.23;;;1.13;;
1751;SDS011;873;47.696;8.068;2023-05-07T12:14:32;1.27;;;1.10;;
1751;SDS011;873;47.696;8.068;2023-05-07T12:17:00;1.20;;;1.10;;
1751;SDS011;873;47.696;8.068;2023-05-07T12:19:28;1.70;;;1.30;;
1751;SDS011;873;47.696;8.068;2023-05-07T12:21:54;1.27;;;1.20;;
1751;SDS011;873;47.696;8.068;2023-05-07T12:24:21;1.47;;;1.27;;
1751;SDS011;873;47.696;8.068;2023-05-07T12:26:47;1.27;;;1.17;;
1751;SDS011;873;47.696;8.068;2023-05-07T12:29:13;1.17;;;1.07;;
1751;SDS011;873;47.696;8.068;2023-05-07T12:31:40;1.20;;;1.10;;
1751;SDS011;873;47.696;8.068;2023-05-07T12:34:06;1.57;;;1.30;;
1751;SDS011;873;47.696;8.068;2023-05-07T12:36:40;1.30;;;1.20;;
1751;SDS011;873;47.696;8.068;2023-05-07T12:39:06;1.50;;;1.40;;
1751;SDS011;873;47.696;8.068;2023-05-07T12:41:36;1.10;;;1.00;;
1751;SDS011;873;47.696;8.068;2023-05-07T12:44:18;2.93;;;1.40;;
1751;SDS011;873;47.696;8.068;2023-05-07T12:46:44;1.67;;;1.30;;
1751;SDS011;873;47.696;8.068;2023-05-07T12:49:09;1.70;;;1.60;;
1751;SDS011;873;47.696;8.068;2023-05-07T12:51:35;1.40;;;1.30;;
1751;SDS011;873;47.696;8.068;2023-05-07T12:54:01;1.40;;;1.30;;
1751;SDS011;873;47.696;8.068;2023-05-07T12:56:26;1.20;;;1.10;;
1751;SDS011;873;47.696;8.068;2023-05-07T12:58:52;1.43;;;1.20;;
1751;SDS011;873;47.696;8.068;2023-05-07T13:01:22;1.23;;;1.13;;
1751;SDS011;873;47.696;8.068;2023-05-07T13:03:54;1.10;;;0.90;;
1751;SDS011;873;47.696;8.068;2023-05-07T13:09:04;1.53;;;1.27;;
1751;SDS011;873;47.696;8.068;2023-05-07T13:11:29;0.93;;;0.93;;
1751;SDS011;873;47.696;8.068;2023-05-07T13:13:55;1.50;;;1.10;;
1751;SDS011;873;47.696;8.068;2023-05-07T13:16:20;1.93;;;1.13;;
1751;SDS011;873;47.696;8.068;2023-05-07T13:18:46;1.13;;;1.10;;
1751;SDS011;873;47.696;8.068;2023-05-07T13:21:11;1.60;;;1.43;;
1751;SDS011;873;47.696;8.068;2023-05-07T13:23:38;2.17;;;1.23;;
1751;SDS011;873;47.696;8.068;2023-05-07T13:26:03;2.63;;;2.07;;
1751;SDS011;873;47.696;8.068;2023-05-07T13:28:29;0.80;;;0.80;;
1751;SDS011;873;47.696;8.068;2023-05-07T13:30:54;0.70;;;0.60;;
1751;SDS011;873;47.696;8.068;2023-05-07T13:33:20;0.70;;;0.70;;
1751;SDS011;873;47.696;8.068;2023-05-07T13:35:45;0.80;;;0.70;;
1751;SDS011;873;47.696;8.068;2023-05-07T13:38:11;0.83;;;0.80;;
1751;SDS011;873;47.696;8.068;2023-05-07T13:40:36;0.80;;;0.80;;
1751;SDS011;873;47.696;8.068;2023-05-07T13:43:02;0.77;;;0.50;;
1751;SDS011;873;47.696;8.068;2023-05-07T13:45:28;1.10;;;0.80;;
1751;SDS011;873;47.696;8.068;2023-05-07T13:47:55;0.93;;;0.67;;
1751;SDS011;873;47.696;8.068;2023-05-07T13:50:21;0.57;;;0.57;;
1751;SDS011;873;47.696;8.068;2023-05-07T13:52:47;1.90;;;0.50;;
1751;SDS011;873;47.696;8.068;2023-05-07T13:55:17;1.23;;;0.97;;
1751;SDS011;873;47.696;8.068;2023-05-07T13:57:43;0.50;;;0.50;;
1751;SDS011;873;47.696;8.068;2023-05-07T14:00:09;1.20;;;1.10;;
1751;SDS011;873;47.696;8.068;2023-05-07T14:02:35;0.63;;;0.63;;
1751;SDS011;873;47.696;8.068;2023-05-07T14:05:00;0.90;;;0.70;;
1751;SDS011;873;47.696;8.068;2023-05-07T14:07:27;0.70;;;0.70;;
1751;SDS011;873;47.696;8.068;2023-05-07T14:09:53;0.77;;;0.70;;
1751;SDS011;873;47.696;8.068;2023-05-07T14:12:19;0.97;;;0.77;;
1751;SDS011;873;47.696;8.068;2023-05-07T14:14:45;0.50;;;0.40;;
1751;SDS011;873;47.696;8.068;2023-05-07T14:17:12;0.73;;;0.50;;
1751;SDS011;873;47.696;8.068;2023-05-07T14:19:37;0.50;;;0.50;;
1751;SDS011;873;47.696;8.068;2023-05-07T14:22:03;0.53;;;0.43;;
1751;SDS011;873;47.696;8.068;2023-05-07T14:24:29;0.77;;;0.63;;
1751;SDS011;873;47.696;8.068;2023-05-07T14:26:54;0.60;;;0.60;;
1751;SDS011;873;47.696;8.068;2023-05-07T14:29:20;4.07;;;0.60;;
1751;SDS011;873;47.696;8.068;2023-05-07T14:31:45;1.27;;;0.60;;
1751;SDS011;873;47.696;8.068;2023-05-07T14:34:11;1.33;;;0.60;;
1751;SDS011;873;47.696;8.068;2023-05-07T14:36:36;0.70;;;0.60;;
1751;SDS011;873;47.696;8.068;2023-05-07T14:39:03;0.60;;;0.60;;
1751;SDS011;873;47.696;8.068;2023-05-07T14:41:29;0.40;;;0.40;;
1751;SDS011;873;47.696;8.068;2023-05-07T14:43:56;0.70;;;0.40;;
1751;SDS011;873;47.696;8.068;2023-05-07T14:46:21;0.40;;;0.40;;
1751;SDS011;873;47.696;8.068;2023-05-07T14:48:47;0.60;;;0.60;;
1751;SDS011;873;47.696;8.068;2023-05-07T14:51:13;0.40;;;0.40;;
1751;SDS011;873;47.696;8.068;2023-05-07T14:53:41;0.50;;;0.40;;
1751;SDS011;873;47.696;8.068;2023-05-07T14:56:07;0.20;;;0.20;;
1751;SDS011;873;47.696;8.068;2023-05-07T14:58:33;0.57;;;0.33;;
1751;SDS011;873;47.696;8.068;2023-05-07T15:00:59;0.90;;;0.40;;
1751;SDS011;873;47.696;8.068;2023-05-07T15:03:25;0.40;;;0.40;;
1751;SDS011;873;47.696;8.068;2023-05-07T15:33:46;0.57;;;0.57;;
1751;SDS011;873;47.696;8.068;2023-05-07T15:36:12;1.13;;;0.40;;
1751;SDS011;873;47.696;8.068;2023-05-07T15:38:38;0.57;;;0.57;;
1751;SDS011;873;47.696;8.068;2023-05-07T15:41:03;0.50;;;0.50;;
1751;SDS011;873;47.696;8.068;2023-05-07T15:43:29;0.50;;;0.50;;
1751;SDS011;873;47.696;8.068;2023-05-07T15:45:54;0.53;;;0.53;;
1751;SDS011;873;47.696;8.068;2023-05-07T15:48:20;0.80;;;0.77;;
1751;SDS011;873;47.696;8.068;2023-05-07T15:50:45;0.60;;;0.60;;
1751;SDS011;873;47.696;8.068;2023-05-07T15:53:11;0.70;;;0.43;;
1751;SDS011;873;47.696;8.068;2023-05-07T15:55:37;0.70;;;0.70;;
1751;SDS011;873;47.696;8.068;2023-05-07T15:58:03;0.60;;;0.60;;
1751;SDS011;873;47.696;8.068;2023-05-07T16:00:32;0.97;;;0.90;;
1751;SDS011;873;47.696;8.068;2023-05-07T16:03:00;0.70;;;0.70;;
1751;SDS011;873;47.696;8.068;2023-05-07T16:05:26;0.60;;;0.60;;
1751;SDS011;873;47.696;8.068;2023-05-07T16:07:52;0.50;;;0.50;;
1751;SDS011;873;47.696;8.068;2023-05-07T16:10:17;0.73;;;0.73;;